Back to Top

Language: 

My Weather Underground Personal Weather Station Historical Data with Graphs...

Delerius Weather Station Historical Data
Daily Summary for March 11, 2017 Units:  Both    English   Metric
« Previous Day
Next Day »
Daily Weekly Monthly Yearly Custom
  High: Low: Average:
Temperature: 56.1 °F /  13.4 °C 48.5 °F /  9.2 °C 52.2 °F /  11.2 °C
Dew Point: 51.3 °F /  10.7 °C 44.9 °F /  7.2 °C 48.6 °F /  9.2 °C
Humidity: 94 % 78 % 88 %
Wind Speed: 9.0 mph /  14.5 km/h - 4.3 mph /  6.9 km/h
Wind Gust: 13.0 mph /  20.9 km/h - -
Wind:- - South
Pressure: 30.10 in /  1019.2 hPa 29.89 in /  1012.1 hPa -
Precipitation: 0.01 in /  0.25 mm    
Historical Graphs
 
 
Tabular Data for March 11, 2017
Time Temperature Dew Point Pressure Wind Wind Speed Wind Gust Humidity Rainfall Rate (Hourly) solar Conditions
00:00 49.6 °F /  9.8 °C 47.7 °F /  8.7 °C 30.10 in /  1019.2 hPa SE 3.0 mph /  4.8 km/h 3.0 mph /  4.8 km/h 93 % 0.00 in /  0 mm 0 W/m2
00:05 49.6 °F /  9.8 °C 47.7 °F /  8.7 °C 30.10 in /  1019.2 hPa SE 4.0 mph /  6.4 km/h 4.0 mph /  6.4 km/h 93 % 0.00 in /  0 mm 0 W/m2
00:15 49.7 °F /  9.8 °C 48.0 °F /  8.9 °C 30.10 in /  1019.2 hPa SE 4.0 mph /  6.4 km/h 6.0 mph /  9.7 km/h 94 % 0.00 in /  0 mm 0 W/m2
00:20 49.7 °F /  9.8 °C 48.0 °F /  8.9 °C 30.10 in /  1019.2 hPa South 4.0 mph /  6.4 km/h 4.0 mph /  6.4 km/h 94 % 0.00 in /  0 mm 0 W/m2
00:25 49.8 °F /  9.9 °C 48.1 °F /  8.9 °C 30.10 in /  1019.2 hPa SE 4.0 mph /  6.4 km/h 4.0 mph /  6.4 km/h 94 % 0.00 in /  0 mm 0 W/m2
00:30 49.8 °F /  9.9 °C 48.1 °F /  8.9 °C 30.09 in /  1018.8 hPa SE 4.0 mph /  6.4 km/h 5.0 mph /  8 km/h 94 % 0.00 in /  0 mm 0 W/m2
00:35 49.9 °F /  9.9 °C 48.2 °F /  9 °C 30.09 in /  1018.8 hPa SSE 5.0 mph /  8 km/h 5.0 mph /  8 km/h 94 % 0.00 in /  0 mm 0 W/m2
00:40 49.9 °F /  9.9 °C 48.2 °F /  9 °C 30.09 in /  1018.8 hPa SSE 6.0 mph /  9.7 km/h 6.0 mph /  9.7 km/h 94 % 0.00 in /  0 mm 0 W/m2
00:45 49.9 °F /  9.9 °C 48.2 °F /  9 °C 30.09 in /  1018.8 hPa SE 6.0 mph /  9.7 km/h 6.0 mph /  9.7 km/h 94 % 0.00 in /  0 mm 0 W/m2
00:50 49.9 °F /  9.9 °C 48.2 °F /  9 °C 30.09 in /  1018.8 hPa ESE 5.0 mph /  8 km/h 5.0 mph /  8 km/h 94 % 0.00 in /  0 mm 0 W/m2
00:55 49.8 °F /  9.9 °C 48.1 °F /  8.9 °C 30.08 in /  1018.5 hPa SE 4.0 mph /  6.4 km/h 5.0 mph /  8 km/h 94 % 0.00 in /  0 mm 0 W/m2
01:05 49.7 °F /  9.8 °C 48.0 °F /  8.9 °C 30.09 in /  1018.8 hPa ESE 5.0 mph /  8 km/h 8.0 mph /  12.9 km/h 94 % 0.00 in /  0 mm 0 W/m2
01:10 49.7 °F /  9.8 °C 48.0 °F /  8.9 °C 30.09 in /  1018.8 hPa East 4.0 mph /  6.4 km/h 4.0 mph /  6.4 km/h 94 % 0.00 in /  0 mm 0 W/m2
01:15 49.6 °F /  9.8 °C 47.9 °F /  8.8 °C 30.08 in /  1018.5 hPa East 3.0 mph /  4.8 km/h 8.0 mph /  12.9 km/h 94 % 0.00 in /  0 mm 0 W/m2
01:20 49.6 °F /  9.8 °C 47.9 °F /  8.8 °C 30.09 in /  1018.8 hPa East 3.0 mph /  4.8 km/h 3.0 mph /  4.8 km/h 94 % 0.00 in /  0 mm 0 W/m2
01:30 49.5 °F /  9.7 °C 47.8 °F /  8.8 °C 30.08 in /  1018.5 hPa ESE 4.0 mph /  6.4 km/h 8.0 mph /  12.9 km/h 94 % 0.00 in /  0 mm 0 W/m2
01:40 49.3 °F /  9.6 °C 47.6 °F /  8.7 °C 30.08 in /  1018.5 hPa ESE 4.0 mph /  6.4 km/h 8.0 mph /  12.9 km/h 94 % 0.00 in /  0 mm 0 W/m2
01:45 49.2 °F /  9.6 °C 47.5 °F /  8.6 °C 30.08 in /  1018.5 hPa ESE 4.0 mph /  6.4 km/h 8.0 mph /  12.9 km/h 94 % 0.00 in /  0 mm 0 W/m2
01:50 49.2 °F /  9.6 °C 47.5 °F /  8.6 °C 30.08 in /  1018.5 hPa SE 4.0 mph /  6.4 km/h 8.0 mph /  12.9 km/h 94 % 0.00 in /  0 mm 0 W/m2
01:55 49.1 °F /  9.5 °C 47.4 °F /  8.6 °C 30.08 in /  1018.5 hPa South 4.0 mph /  6.4 km/h 8.0 mph /  12.9 km/h 94 % 0.00 in /  0 mm 0 W/m2
02:00 49.1 °F /  9.5 °C 47.4 °F /  8.6 °C 30.08 in /  1018.5 hPa South 3.0 mph /  4.8 km/h 3.0 mph /  4.8 km/h 94 % 0.00 in /  0 mm 0 W/m2
02:05 49.1 °F /  9.5 °C 47.4 °F /  8.6 °C 30.07 in /  1018.2 hPa SSW 4.0 mph /  6.4 km/h 4.0 mph /  6.4 km/h 94 % 0.00 in /  0 mm 0 W/m2
02:15 49.1 °F /  9.5 °C 47.4 °F /  8.6 °C 30.07 in /  1018.2 hPa South 6.0 mph /  9.7 km/h 8.0 mph /  12.9 km/h 94 % 0.00 in /  0 mm 0 W/m2
02:20 49.2 °F /  9.6 °C 47.3 °F /  8.5 °C 30.06 in /  1017.8 hPa South 6.0 mph /  9.7 km/h 6.0 mph /  9.7 km/h 93 % 0.00 in /  0 mm 0 W/m2
02:25 49.2 °F /  9.6 °C 47.3 °F /  8.5 °C 30.06 in /  1017.8 hPa SW 4.0 mph /  6.4 km/h 8.0 mph /  12.9 km/h 93 % 0.00 in /  0 mm 0 W/m2
02:30 49.2 °F /  9.6 °C 47.3 °F /  8.5 °C 30.06 in /  1017.8 hPa SSW 3.0 mph /  4.8 km/h 8.0 mph /  12.9 km/h 93 % 0.00 in /  0 mm 0 W/m2
02:35 49.3 °F /  9.6 °C 47.4 °F /  8.6 °C 30.06 in /  1017.8 hPa South 3.0 mph /  4.8 km/h 10.0 mph /  16.1 km/h 93 % 0.00 in /  0 mm 0 W/m2
02:45 49.5 °F /  9.7 °C 47.3 °F /  8.5 °C 30.06 in /  1017.8 hPa South 4.0 mph /  6.4 km/h 9.0 mph /  14.5 km/h 92 % 0.00 in /  0 mm 0 W/m2
02:50 49.6 °F /  9.8 °C 47.4 °F /  8.6 °C 30.06 in /  1017.8 hPa South 4.0 mph /  6.4 km/h 8.0 mph /  12.9 km/h 92 % 0.00 in /  0 mm 0 W/m2
02:55 49.6 °F /  9.8 °C 47.1 °F /  8.4 °C 30.06 in /  1017.8 hPa SSW 5.0 mph /  8 km/h 8.0 mph /  12.9 km/h 91 % 0.00 in /  0 mm 0 W/m2
03:05 49.4 °F /  9.7 °C 46.0 °F /  7.8 °C 30.06 in /  1017.8 hPa SSW 9.0 mph /  14.5 km/h 13.0 mph /  20.9 km/h 88 % 0.00 in /  0 mm 0 W/m2
03:10 49.4 °F /  9.7 °C 45.7 °F /  7.6 °C 30.06 in /  1017.8 hPa SSW 9.0 mph /  14.5 km/h 9.0 mph /  14.5 km/h 87 % 0.00 in /  0 mm 0 W/m2
03:15 49.3 °F /  9.6 °C 45.3 °F /  7.4 °C 30.05 in /  1017.5 hPa SSW 8.0 mph /  12.9 km/h 9.0 mph /  14.5 km/h 86 % 0.00 in /  0 mm 0 W/m2
03:20 49.3 °F /  9.6 °C 45.3 °F /  7.4 °C 30.05 in /  1017.5 hPa SSW 5.0 mph /  8 km/h 5.0 mph /  8 km/h 86 % 0.00 in /  0 mm 0 W/m2
03:25 49.1 °F /  9.5 °C 45.1 °F /  7.3 °C 30.05 in /  1017.5 hPa SSW 3.0 mph /  4.8 km/h 8.0 mph /  12.9 km/h 86 % 0.00 in /  0 mm 0 W/m2
03:30 49.0 °F /  9.4 °C 45.0 °F /  7.2 °C 30.05 in /  1017.5 hPa West 3.0 mph /  4.8 km/h 8.0 mph /  12.9 km/h 86 % 0.00 in /  0 mm 0 W/m2
03:35 49.0 °F /  9.4 °C 45.0 °F /  7.2 °C 30.05 in /  1017.5 hPa SW 4.0 mph /  6.4 km/h 8.0 mph /  12.9 km/h 86 % 0.00 in /  0 mm 0 W/m2
03:40 48.9 °F /  9.4 °C 44.9 °F /  7.2 °C 30.05 in /  1017.5 hPa WSW 5.0 mph /  8 km/h 8.0 mph /  12.9 km/h 86 % 0.00 in /  0 mm 0 W/m2
03:45 49.0 °F /  9.4 °C 45.0 °F /  7.2 °C 30.05 in /  1017.5 hPa SSW 4.0 mph /  6.4 km/h 8.0 mph /  12.9 km/h 86 % 0.00 in /  0 mm 0 W/m2
03:55 49.0 °F /  9.4 °C 45.3 °F /  7.4 °C 30.05 in /  1017.5 hPa WSW 2.0 mph /  3.2 km/h 8.0 mph /  12.9 km/h 87 % 0.00 in /  0 mm 0 W/m2
04:00 49.0 °F /  9.4 °C 45.3 °F /  7.4 °C 30.05 in /  1017.5 hPa SW 3.0 mph /  4.8 km/h 3.0 mph /  4.8 km/h 87 % 0.00 in /  0 mm 0 W/m2
04:05 48.9 °F /  9.4 °C 45.2 °F /  7.3 °C 30.05 in /  1017.5 hPa WSW 3.0 mph /  4.8 km/h 4.0 mph /  6.4 km/h 87 % 0.00 in /  0 mm 0 W/m2
04:15 48.9 °F /  9.4 °C 45.2 °F /  7.3 °C 30.04 in /  1017.2 hPa SW 6.0 mph /  9.7 km/h 8.0 mph /  12.9 km/h 87 % 0.00 in /  0 mm 0 W/m2
04:20 48.9 °F /  9.4 °C 45.2 °F /  7.3 °C 30.04 in /  1017.2 hPa WSW 5.0 mph /  8 km/h 5.0 mph /  8 km/h 87 % 0.00 in /  0 mm 0 W/m2
04:30 49.0 °F /  9.4 °C 45.6 °F /  7.6 °C 30.04 in /  1017.2 hPa SW 6.0 mph /  9.7 km/h 8.0 mph /  12.9 km/h 88 % 0.00 in /  0 mm 0 W/m2
04:35 49.0 °F /  9.4 °C 45.6 °F /  7.6 °C 30.04 in /  1017.2 hPa SW 6.0 mph /  9.7 km/h 8.0 mph /  12.9 km/h 88 % 0.00 in /  0 mm 0 W/m2
04:40 49.0 °F /  9.4 °C 45.6 °F /  7.6 °C 30.04 in /  1017.2 hPa SW 7.0 mph /  11.3 km/h 8.0 mph /  12.9 km/h 88 % 0.00 in /  0 mm 0 W/m2
04:45 48.9 °F /  9.4 °C 45.5 °F /  7.5 °C 30.04 in /  1017.2 hPa SSW 7.0 mph /  11.3 km/h 8.0 mph /  12.9 km/h 88 % 0.00 in /  0 mm 0 W/m2
04:50 48.9 °F /  9.4 °C 45.5 °F /  7.5 °C 30.04 in /  1017.2 hPa SW 7.0 mph /  11.3 km/h 8.0 mph /  12.9 km/h 88 % 0.00 in /  0 mm 0 W/m2
05:00 48.9 °F /  9.4 °C 45.5 °F /  7.5 °C 30.04 in /  1017.2 hPa SW 5.0 mph /  8 km/h 8.0 mph /  12.9 km/h 88 % 0.00 in /  0 mm 0 W/m2
05:05 48.8 °F /  9.3 °C 45.4 °F /  7.4 °C 30.04 in /  1017.2 hPa SW 5.0 mph /  8 km/h 8.0 mph /  12.9 km/h 88 % 0.00 in /  0 mm 0 W/m2
05:10 48.9 °F /  9.4 °C 45.5 °F /  7.5 °C 30.04 in /  1017.2 hPa SW 6.0 mph /  9.7 km/h 8.0 mph /  12.9 km/h 88 % 0.00 in /  0 mm 0 W/m2
05:15 48.9 °F /  9.4 °C 45.5 °F /  7.5 °C 30.03 in /  1016.8 hPa SSW 5.0 mph /  8 km/h 8.0 mph /  12.9 km/h 88 % 0.00 in /  0 mm 0 W/m2
05:20 48.9 °F /  9.4 °C 45.8 °F /  7.7 °C 30.03 in /  1016.8 hPa SSW 4.0 mph /  6.4 km/h 4.0 mph /  6.4 km/h 89 % 0.00 in /  0 mm 0 W/m2
05:25 48.8 °F /  9.3 °C 45.7 °F /  7.6 °C 30.03 in /  1016.8 hPa SSW 2.0 mph /  3.2 km/h 8.0 mph /  12.9 km/h 89 % 0.00 in /  0 mm 0 W/m2
05:35 48.9 °F /  9.4 °C 45.8 °F /  7.7 °C 30.03 in /  1016.8 hPa South 2.0 mph /  3.2 km/h 8.0 mph /  12.9 km/h 89 % 0.00 in /  0 mm 0 W/m2
05:45 48.8 °F /  9.3 °C 45.7 °F /  7.6 °C 30.03 in /  1016.8 hPa SSW 3.0 mph /  4.8 km/h 8.0 mph /  12.9 km/h 89 % 0.00 in /  0 mm 0 W/m2
05:50 48.8 °F /  9.3 °C 45.7 °F /  7.6 °C 30.03 in /  1016.8 hPa SW 5.0 mph /  8 km/h 9.0 mph /  14.5 km/h 89 % 0.00 in /  0 mm 0 W/m2
05:55 48.8 °F /  9.3 °C 45.7 °F /  7.6 °C 30.03 in /  1016.8 hPa SSW 6.0 mph /  9.7 km/h 9.0 mph /  14.5 km/h 89 % 0.00 in /  0 mm 0 W/m2
06:00 48.8 °F /  9.3 °C 45.7 °F /  7.6 °C 30.03 in /  1016.8 hPa SW 7.0 mph /  11.3 km/h 7.0 mph /  11.3 km/h 89 % 0.00 in /  0 mm 0 W/m2
06:10 48.7 °F /  9.3 °C 45.6 °F /  7.6 °C 30.02 in /  1016.5 hPa SSW 7.0 mph /  11.3 km/h 7.0 mph /  11.3 km/h 89 % 0.00 in /  0 mm 0 W/m2
06:15 48.7 °F /  9.3 °C 45.6 °F /  7.6 °C 30.02 in /  1016.5 hPa SSW 7.0 mph /  11.3 km/h 8.0 mph /  12.9 km/h 89 % 0.00 in /  0 mm 0 W/m2
06:20 48.6 °F /  9.2 °C 45.5 °F /  7.5 °C 30.02 in /  1016.5 hPa SSW 7.0 mph /  11.3 km/h 8.0 mph /  12.9 km/h 89 % 0.00 in /  0 mm 0 W/m2
06:25 48.6 °F /  9.2 °C 45.5 °F /  7.5 °C 30.02 in /  1016.5 hPa SSW 7.0 mph /  11.3 km/h 8.0 mph /  12.9 km/h 89 % 0.00 in /  0 mm 0 W/m2
06:30 48.6 °F /  9.2 °C 45.5 °F /  7.5 °C 30.02 in /  1016.5 hPa SSW 6.0 mph /  9.7 km/h 6.0 mph /  9.7 km/h 89 % 0.00 in /  0 mm 0 W/m2
06:40 48.6 °F /  9.2 °C 45.5 °F /  7.5 °C 30.02 in /  1016.5 hPa South 7.0 mph /  11.3 km/h 7.0 mph /  11.3 km/h 89 % 0.00 in /  0 mm 5 W/m2
06:45 48.6 °F /  9.2 °C 45.5 °F /  7.5 °C 30.02 in /  1016.5 hPa SSW 7.0 mph /  11.3 km/h 8.0 mph /  12.9 km/h 89 % 0.00 in /  0 mm 7 W/m2
06:50 48.6 °F /  9.2 °C 45.5 °F /  7.5 °C 30.02 in /  1016.5 hPa SSW 6.0 mph /  9.7 km/h 8.0 mph /  12.9 km/h 89 % 0.00 in /  0 mm 9 W/m2
07:00 48.5 °F /  9.2 °C 45.4 °F /  7.4 °C 30.03 in /  1016.8 hPa SSW 7.0 mph /  11.3 km/h 7.0 mph /  11.3 km/h 89 % 0.00 in /  0 mm 18 W/m2
07:05 48.5 °F /  9.2 °C 45.4 °F /  7.4 °C 30.03 in /  1016.8 hPa SSW 7.0 mph /  11.3 km/h 8.0 mph /  12.9 km/h 89 % 0.00 in /  0 mm 21 W/m2
07:15 48.7 °F /  9.3 °C 45.6 °F /  7.6 °C 30.03 in /  1016.8 hPa South 8.0 mph /  12.9 km/h 12.0 mph /  19.3 km/h 89 % 0.00 in /  0 mm 33 W/m2
07:20 48.7 °F /  9.3 °C 45.6 °F /  7.6 °C 30.03 in /  1016.8 hPa South 8.0 mph /  12.9 km/h 8.0 mph /  12.9 km/h 89 % 0.00 in /  0 mm 39 W/m2
07:25 48.8 °F /  9.3 °C 45.7 °F /  7.6 °C 30.03 in /  1016.8 hPa South 7.0 mph /  11.3 km/h 8.0 mph /  12.9 km/h 89 % 0.00 in /  0 mm 44 W/m2
07:30 48.8 °F /  9.3 °C 45.7 °F /  7.6 °C 30.03 in /  1016.8 hPa SW 7.0 mph /  11.3 km/h 8.0 mph /  12.9 km/h 89 % 0.00 in /  0 mm 49 W/m2
07:35 48.8 °F /  9.3 °C 45.7 °F /  7.6 °C 30.02 in /  1016.5 hPa South 6.0 mph /  9.7 km/h 8.0 mph /  12.9 km/h 89 % 0.00 in /  0 mm 56 W/m2
07:40 48.8 °F /  9.3 °C 45.7 °F /  7.6 °C 30.02 in /  1016.5 hPa South 4.0 mph /  6.4 km/h 4.0 mph /  6.4 km/h 89 % 0.00 in /  0 mm 58 W/m2
07:50 48.8 °F /  9.3 °C 46.0 °F /  7.8 °C 30.01 in /  1016.1 hPa South 3.0 mph /  4.8 km/h 8.0 mph /  12.9 km/h 90 % 0.00 in /  0 mm 62 W/m2
07:55 48.8 °F /  9.3 °C 46.0 °F /  7.8 °C 30.01 in /  1016.1 hPa South 4.0 mph /  6.4 km/h 8.0 mph /  12.9 km/h 90 % 0.00 in /  0 mm 65 W/m2
08:00 48.8 °F /  9.3 °C 46.0 °F /  7.8 °C 30.01 in /  1016.1 hPa SSE 4.0 mph /  6.4 km/h 4.0 mph /  6.4 km/h 90 % 0.00 in /  0 mm 69 W/m2
08:05 48.9 °F /  9.4 °C 46.1 °F /  7.8 °C 30.01 in /  1016.1 hPa SE 4.0 mph /  6.4 km/h 6.0 mph /  9.7 km/h 90 % 0.00 in /  0 mm 76 W/m2
08:10 48.9 °F /  9.4 °C 46.1 °F /  7.8 °C 30.02 in /  1016.5 hPa West 4.0 mph /  6.4 km/h 4.0 mph /  6.4 km/h 90 % 0.00 in /  0 mm 70 W/m2
08:20 49.1 °F /  9.5 °C 46.3 °F /  7.9 °C 30.02 in /  1016.5 hPa SSW 5.0 mph /  8 km/h 11.0 mph /  17.7 km/h 90 % 0.00 in /  0 mm 65 W/m2
08:25 49.2 °F /  9.6 °C 46.4 °F /  8 °C 30.02 in /  1016.5 hPa SW 6.0 mph /  9.7 km/h 11.0 mph /  17.7 km/h 90 % 0.00 in /  0 mm 62 W/m2
08:35 49.3 °F /  9.6 °C 46.5 °F /  8.1 °C 30.02 in /  1016.5 hPa WSW 3.0 mph /  4.8 km/h 8.0 mph /  12.9 km/h 90 % 0.00 in /  0 mm 56 W/m2
08:40 49.4 °F /  9.7 °C 46.6 °F /  8.1 °C 30.02 in /  1016.5 hPa WSW 1.0 mph /  1.6 km/h 8.0 mph /  12.9 km/h 90 % 0.00 in /  0 mm 63 W/m2
08:45 49.5 °F /  9.7 °C 46.7 °F /  8.2 °C 30.02 in /  1016.5 hPa SSE 1.0 mph /  1.6 km/h 8.0 mph /  12.9 km/h 90 % 0.00 in /  0 mm 69 W/m2
08:55 49.6 °F /  9.8 °C 46.8 °F /  8.2 °C 30.02 in /  1016.5 hPa SSE 1.0 mph /  1.6 km/h 5.0 mph /  8 km/h 90 % 0.00 in /  0 mm 74 W/m2
09:00 49.7 °F /  9.8 °C 46.9 °F /  8.3 °C 30.02 in /  1016.5 hPa SW 2.0 mph /  3.2 km/h 2.0 mph /  3.2 km/h 90 % 0.00 in /  0 mm 62 W/m2
09:05 49.9 °F /  9.9 °C 47.1 °F /  8.4 °C 30.02 in /  1016.5 hPa SSE 2.0 mph /  3.2 km/h 8.0 mph /  12.9 km/h 90 % 0.00 in /  0 mm 58 W/m2
09:10 50.0 °F /  10 °C 47.2 °F /  8.4 °C 30.02 in /  1016.5 hPa ESE 2.0 mph /  3.2 km/h 8.0 mph /  12.9 km/h 90 % 0.00 in /  0 mm 56 W/m2
09:15 50.1 °F /  10.1 °C 47.3 °F /  8.5 °C 30.02 in /  1016.5 hPa SSE 3.0 mph /  4.8 km/h 8.0 mph /  12.9 km/h 90 % 0.00 in /  0 mm 70 W/m2
09:20 50.3 °F /  10.2 °C 47.5 °F /  8.6 °C 30.02 in /  1016.5 hPa South 5.0 mph /  8 km/h 5.0 mph /  8 km/h 90 % 0.00 in /  0 mm 63 W/m2
09:30 50.5 °F /  10.3 °C 47.4 °F /  8.6 °C 30.02 in /  1016.5 hPa SE 3.0 mph /  4.8 km/h 3.0 mph /  4.8 km/h 89 % 0.00 in /  0 mm 58 W/m2
09:35 50.6 °F /  10.3 °C 47.5 °F /  8.6 °C 30.02 in /  1016.5 hPa SE 3.0 mph /  4.8 km/h 4.0 mph /  6.4 km/h 89 % 0.00 in /  0 mm 58 W/m2
09:40 50.7 °F /  10.4 °C 47.6 °F /  8.7 °C 30.01 in /  1016.1 hPa SE 3.0 mph /  4.8 km/h 3.0 mph /  4.8 km/h 89 % 0.00 in /  0 mm 62 W/m2
09:50 50.9 °F /  10.5 °C 47.5 °F /  8.6 °C 30.01 in /  1016.1 hPa South 5.0 mph /  8 km/h 5.0 mph /  8 km/h 88 % 0.00 in /  0 mm 69 W/m2
09:55 51.0 °F /  10.6 °C 47.6 °F /  8.7 °C 30.01 in /  1016.1 hPa SE 5.0 mph /  8 km/h 8.0 mph /  12.9 km/h 88 % 0.00 in /  0 mm 72 W/m2
10:05 51.2 °F /  10.7 °C 47.8 °F /  8.8 °C 30.01 in /  1016.1 hPa South 3.0 mph /  4.8 km/h 8.0 mph /  12.9 km/h 88 % 0.00 in /  0 mm 81 W/m2
10:10 51.3 °F /  10.7 °C 47.9 °F /  8.8 °C 30.01 in /  1016.1 hPa South 3.0 mph /  4.8 km/h 8.0 mph /  12.9 km/h 88 % 0.00 in /  0 mm 72 W/m2
10:15 51.4 °F /  10.8 °C 48.0 °F /  8.9 °C 30.01 in /  1016.1 hPa South 1.0 mph /  1.6 km/h 8.0 mph /  12.9 km/h 88 % 0.00 in /  0 mm 72 W/m2
10:20 51.5 °F /  10.8 °C 48.1 °F /  8.9 °C 30.01 in /  1016.1 hPa South 1.0 mph /  1.6 km/h 8.0 mph /  12.9 km/h 88 % 0.00 in /  0 mm 69 W/m2
10:25 51.6 °F /  10.9 °C 47.9 °F /  8.8 °C 30.01 in /  1016.1 hPa South 2.0 mph /  3.2 km/h 8.0 mph /  12.9 km/h 87 % 0.00 in /  0 mm 72 W/m2
10:30 51.7 °F /  10.9 °C 48.0 °F /  8.9 °C 30.01 in /  1016.1 hPa SSE 2.0 mph /  3.2 km/h 2.0 mph /  3.2 km/h 87 % 0.00 in /  0 mm 84 W/m2
10:35 51.8 °F /  11 °C 47.7 °F /  8.7 °C 30.01 in /  1016.1 hPa Calm   4.0 mph /  6.4 km/h 86 % 0.00 in /  0 mm 98 W/m2
10:40 51.9 °F /  11.1 °C 47.8 °F /  8.8 °C 30.01 in /  1016.1 hPa SSE 1.0 mph /  1.6 km/h 1.0 mph /  1.6 km/h 86 % 0.00 in /  0 mm 118 W/m2
10:45 52.0 °F /  11.1 °C 47.9 °F /  8.8 °C 30.01 in /  1016.1 hPa SSW 1.0 mph /  1.6 km/h 5.0 mph /  8 km/h 86 % 0.00 in /  0 mm 141 W/m2
10:50 52.2 °F /  11.2 °C 48.1 °F /  8.9 °C 30.01 in /  1016.1 hPa SSW 2.0 mph /  3.2 km/h 8.0 mph /  12.9 km/h 86 % 0.00 in /  0 mm 167 W/m2
10:55 52.4 °F /  11.3 °C 48.3 °F /  9.1 °C 30.02 in /  1016.5 hPa SW 4.0 mph /  6.4 km/h 8.0 mph /  12.9 km/h 86 % 0.00 in /  0 mm 206 W/m2
11:00 52.6 °F /  11.4 °C 48.5 °F /  9.2 °C 30.02 in /  1016.5 hPa SSW 6.0 mph /  9.7 km/h 6.0 mph /  9.7 km/h 86 % 0.00 in /  0 mm 195 W/m2
11:10 53.0 °F /  11.7 °C 48.6 °F /  9.2 °C 30.01 in /  1016.1 hPa West 4.0 mph /  6.4 km/h 8.0 mph /  12.9 km/h 85 % 0.00 in /  0 mm 206 W/m2
11:20 53.4 °F /  11.9 °C 48.7 °F /  9.3 °C 30.01 in /  1016.1 hPa WSW 5.0 mph /  8 km/h 8.0 mph /  12.9 km/h 84 % 0.00 in /  0 mm 213 W/m2
11:25 53.5 °F /  11.9 °C 48.5 °F /  9.2 °C 30.01 in /  1016.1 hPa WSW 6.0 mph /  9.7 km/h 8.0 mph /  12.9 km/h 83 % 0.00 in /  0 mm 223 W/m2
11:30 53.7 °F /  12.1 °C 48.7 °F /  9.3 °C 30.01 in /  1016.1 hPa SSW 6.0 mph /  9.7 km/h 8.0 mph /  12.9 km/h 83 % 0.00 in /  0 mm 255 W/m2
11:35 53.8 °F /  12.1 °C 48.8 °F /  9.3 °C 30.01 in /  1016.1 hPa SSW 6.0 mph /  9.7 km/h 8.0 mph /  12.9 km/h 83 % 0.00 in /  0 mm 258 W/m2
11:45 54.1 °F /  12.3 °C 48.7 °F /  9.3 °C 30.01 in /  1016.1 hPa WSW 7.0 mph /  11.3 km/h 9.0 mph /  14.5 km/h 82 % 0.00 in /  0 mm 241 W/m2
11:50 54.3 °F /  12.4 °C 48.9 °F /  9.4 °C 30.01 in /  1016.1 hPa SW 7.0 mph /  11.3 km/h 10.0 mph /  16.1 km/h 82 % 0.00 in /  0 mm 218 W/m2
11:55 54.3 °F /  12.4 °C 48.6 °F /  9.2 °C 30.01 in /  1016.1 hPa SW 7.0 mph /  11.3 km/h 10.0 mph /  16.1 km/h 81 % 0.00 in /  0 mm 172 W/m2
12:00 54.3 °F /  12.4 °C 48.9 °F /  9.4 °C 30.01 in /  1016.1 hPa SSW 5.0 mph /  8 km/h 8.0 mph /  12.9 km/h 82 % 0.00 in /  0 mm 197 W/m2
12:05 54.4 °F /  12.4 °C 48.7 °F /  9.3 °C 30.01 in /  1016.1 hPa SSW 4.0 mph /  6.4 km/h 8.0 mph /  12.9 km/h 81 % 0.00 in /  0 mm 178 W/m2
12:15 54.7 °F /  12.6 °C 49.0 °F /  9.4 °C 30.01 in /  1016.1 hPa SSW 4.0 mph /  6.4 km/h 8.0 mph /  12.9 km/h 81 % 0.00 in /  0 mm 167 W/m2
12:25 54.8 °F /  12.7 °C 49.1 °F /  9.5 °C 30.01 in /  1016.1 hPa WSW 2.0 mph /  3.2 km/h 8.0 mph /  12.9 km/h 81 % 0.00 in /  0 mm 156 W/m2
12:30 54.9 °F /  12.7 °C 49.2 °F /  9.6 °C 30.01 in /  1016.1 hPa WSW 2.0 mph /  3.2 km/h 2.0 mph /  3.2 km/h 81 % 0.00 in /  0 mm 148 W/m2
12:35 55.0 °F /  12.8 °C 48.9 °F /  9.4 °C 30.01 in /  1016.1 hPa WSW 4.0 mph /  6.4 km/h 4.0 mph /  6.4 km/h 80 % 0.00 in /  0 mm 149 W/m2
12:40 55.0 °F /  12.8 °C 48.9 °F /  9.4 °C 30.00 in /  1015.8 hPa SSW 4.0 mph /  6.4 km/h 8.0 mph /  12.9 km/h 80 % 0.00 in /  0 mm 181 W/m2
12:50 55.1 °F /  12.8 °C 49.0 °F /  9.4 °C 30.00 in /  1015.8 hPa SW 3.0 mph /  4.8 km/h 3.0 mph /  4.8 km/h 80 % 0.00 in /  0 mm 176 W/m2
12:55 55.2 °F /  12.9 °C 49.1 °F /  9.5 °C 30.00 in /  1015.8 hPa SW 3.0 mph /  4.8 km/h 5.0 mph /  8 km/h 80 % 0.00 in /  0 mm 181 W/m2
13:00 55.3 °F /  12.9 °C 48.9 °F /  9.4 °C 30.00 in /  1015.8 hPa SSW 4.0 mph /  6.4 km/h 4.0 mph /  6.4 km/h 79 % 0.00 in /  0 mm 149 W/m2
13:05 55.4 °F /  13 °C 49.0 °F /  9.4 °C 30.00 in /  1015.8 hPa SSW 3.0 mph /  4.8 km/h 8.0 mph /  12.9 km/h 79 % 0.00 in /  0 mm 174 W/m2
13:10 55.5 °F /  13.1 °C 49.1 °F /  9.5 °C 30.00 in /  1015.8 hPa SSW 1.0 mph /  1.6 km/h 8.0 mph /  12.9 km/h 79 % 0.00 in /  0 mm 172 W/m2
13:15 55.6 °F /  13.1 °C 49.2 °F /  9.6 °C 29.99 in /  1015.5 hPa Calm   8.0 mph /  12.9 km/h 79 % 0.00 in /  0 mm 142 W/m2
13:25 55.9 °F /  13.3 °C 49.1 °F /  9.5 °C 29.99 in /  1015.5 hPa SSW 1.0 mph /  1.6 km/h 8.0 mph /  12.9 km/h 78 % 0.00 in /  0 mm 116 W/m2
13:30 55.9 °F /  13.3 °C 49.1 °F /  9.5 °C 29.99 in /  1015.5 hPa SSW 1.0 mph /  1.6 km/h 8.0 mph /  12.9 km/h 78 % 0.00 in /  0 mm 113 W/m2
13:35 55.9 °F /  13.3 °C 49.1 °F /  9.5 °C 29.99 in /  1015.5 hPa SSE 2.0 mph /  3.2 km/h 8.0 mph /  12.9 km/h 78 % 0.00 in /  0 mm 98 W/m2
13:40 55.9 °F /  13.3 °C 49.1 °F /  9.5 °C 29.99 in /  1015.5 hPa SSE 2.0 mph /  3.2 km/h 8.0 mph /  12.9 km/h 78 % 0.00 in /  0 mm 128 W/m2
13:50 55.9 °F /  13.3 °C 49.5 °F /  9.7 °C 29.98 in /  1015.1 hPa SSW 2.0 mph /  3.2 km/h 2.0 mph /  3.2 km/h 79 % 0.00 in /  0 mm 127 W/m2
14:00 55.9 °F /  13.3 °C 49.1 °F /  9.5 °C 29.99 in /  1015.5 hPa SSW 4.0 mph /  6.4 km/h 4.0 mph /  6.4 km/h 78 % 0.00 in /  0 mm 72 W/m2
14:05 55.9 °F /  13.3 °C 49.1 °F /  9.5 °C 29.98 in /  1015.1 hPa SSW 4.0 mph /  6.4 km/h 5.0 mph /  8 km/h 78 % 0.00 in /  0 mm 79 W/m2
14:10 55.8 °F /  13.2 °C 49.0 °F /  9.4 °C 29.98 in /  1015.1 hPa SSE 3.0 mph /  4.8 km/h 8.0 mph /  12.9 km/h 78 % 0.00 in /  0 mm 86 W/m2
14:30 55.9 °F /  13.3 °C 49.5 °F /  9.7 °C 29.98 in /  1015.1 hPa SSW 4.0 mph /  6.4 km/h 4.0 mph /  6.4 km/h 79 % 0.00 in /  0 mm 79 W/m2
14:35 55.9 °F /  13.3 °C 49.5 °F /  9.7 °C 29.97 in /  1014.8 hPa SSW 3.0 mph /  4.8 km/h 5.0 mph /  8 km/h 79 % 0.00 in /  0 mm 60 W/m2
14:40 55.8 °F /  13.2 °C 49.4 °F /  9.7 °C 29.98 in /  1015.1 hPa SSW 3.0 mph /  4.8 km/h 4.0 mph /  6.4 km/h 79 % 0.00 in /  0 mm 54 W/m2
14:45 55.8 °F /  13.2 °C 49.4 °F /  9.7 °C 29.97 in /  1014.8 hPa SSW 3.0 mph /  4.8 km/h 4.0 mph /  6.4 km/h 79 % 0.00 in /  0 mm 53 W/m2
14:55 55.8 °F /  13.2 °C 49.4 °F /  9.7 °C 29.97 in /  1014.8 hPa SSW 5.0 mph /  8 km/h 7.0 mph /  11.3 km/h 79 % 0.00 in /  0 mm 76 W/m2
15:00 55.7 °F /  13.2 °C 49.3 °F /  9.6 °C 29.97 in /  1014.8 hPa SW 5.0 mph /  8 km/h 5.0 mph /  8 km/h 79 % 0.00 in /  0 mm 113 W/m2
15:10 55.9 °F /  13.3 °C 49.5 °F /  9.7 °C 29.96 in /  1014.4 hPa SW 5.0 mph /  8 km/h 5.0 mph /  8 km/h 79 % 0.00 in /  0 mm 130 W/m2
15:15 56.0 °F /  13.3 °C 49.6 °F /  9.8 °C 29.97 in /  1014.8 hPa SW 5.0 mph /  8 km/h 5.0 mph /  8 km/h 79 % 0.00 in /  0 mm 113 W/m2
15:20 56.0 °F /  13.3 °C 49.6 °F /  9.8 °C 29.97 in /  1014.8 hPa SSW 4.0 mph /  6.4 km/h 4.0 mph /  6.4 km/h 79 % 0.00 in /  0 mm 104 W/m2
15:25 56.1 °F /  13.4 °C 49.7 °F /  9.8 °C 29.97 in /  1014.8 hPa SW 3.0 mph /  4.8 km/h 8.0 mph /  12.9 km/h 79 % 0.00 in /  0 mm 91 W/m2
15:30 56.1 °F /  13.4 °C 49.3 °F /  9.6 °C 29.97 in /  1014.8 hPa SW 3.0 mph /  4.8 km/h 8.0 mph /  12.9 km/h 78 % 0.00 in /  0 mm 58 W/m2
15:35 56.1 °F /  13.4 °C 49.3 °F /  9.6 °C 29.97 in /  1014.8 hPa SW 4.0 mph /  6.4 km/h 8.0 mph /  12.9 km/h 78 % 0.00 in /  0 mm 39 W/m2
15:40 56.1 °F /  13.4 °C 49.7 °F /  9.8 °C 29.96 in /  1014.4 hPa SW 2.0 mph /  3.2 km/h 2.0 mph /  3.2 km/h 79 % 0.00 in /  0 mm 37 W/m2
15:45 56.0 °F /  13.3 °C 49.6 °F /  9.8 °C 29.97 in /  1014.8 hPa SW 2.0 mph /  3.2 km/h 4.0 mph /  6.4 km/h 79 % 0.00 in /  0 mm 30 W/m2
15:50 56.0 °F /  13.3 °C 49.6 °F /  9.8 °C 29.96 in /  1014.4 hPa SW 3.0 mph /  4.8 km/h 8.0 mph /  12.9 km/h 79 % 0.00 in /  0 mm 30 W/m2
16:00 55.9 °F /  13.3 °C 49.5 °F /  9.7 °C 29.95 in /  1014.1 hPa SSW 2.0 mph /  3.2 km/h 8.0 mph /  12.9 km/h 79 % 0.00 in /  0 mm 33 W/m2
16:05 55.9 °F /  13.3 °C 49.8 °F /  9.9 °C 29.95 in /  1014.1 hPa SSE 3.0 mph /  4.8 km/h 8.0 mph /  12.9 km/h 80 % 0.00 in /  0 mm 37 W/m2
16:15 55.9 °F /  13.3 °C 50.2 °F /  10.1 °C 29.95 in /  1014.1 hPa South 3.0 mph /  4.8 km/h 8.0 mph /  12.9 km/h 81 % 0.00 in /  0 mm 19 W/m2
16:20 55.8 °F /  13.2 °C 50.1 °F /  10.1 °C 29.95 in /  1014.1 hPa South 2.0 mph /  3.2 km/h 8.0 mph /  12.9 km/h 81 % 0.00 in /  0 mm 21 W/m2
16:25 55.8 °F /  13.2 °C 50.4 °F /  10.2 °C 29.96 in /  1014.4 hPa South 2.0 mph /  3.2 km/h 8.0 mph /  12.9 km/h 82 % 0.00 in /  0 mm 28 W/m2
16:30 55.8 °F /  13.2 °C 50.4 °F /  10.2 °C 29.96 in /  1014.4 hPa South 2.0 mph /  3.2 km/h 2.0 mph /  3.2 km/h 82 % 0.00 in /  0 mm 21 W/m2
16:35 55.7 °F /  13.2 °C 50.3 °F /  10.2 °C 29.96 in /  1014.4 hPa South 2.0 mph /  3.2 km/h 8.0 mph /  12.9 km/h 82 % 0.00 in /  0 mm 25 W/m2
16:40 55.7 °F /  13.2 °C 50.3 °F /  10.2 °C 29.95 in /  1014.1 hPa South 2.0 mph /  3.2 km/h 2.0 mph /  3.2 km/h 82 % 0.00 in /  0 mm 32 W/m2
16:50 55.6 °F /  13.1 °C 50.5 °F /  10.3 °C 29.95 in /  1014.1 hPa Calm   8.0 mph /  12.9 km/h 83 % 0.00 in /  0 mm 21 W/m2
16:55 55.6 °F /  13.1 °C 50.5 °F /  10.3 °C 29.95 in /  1014.1 hPa South 1.0 mph /  1.6 km/h 8.0 mph /  12.9 km/h 83 % 0.00 in /  0 mm 16 W/m2
17:00 55.6 °F /  13.1 °C 50.5 °F /  10.3 °C 29.95 in /  1014.1 hPa South 2.0 mph /  3.2 km/h 8.0 mph /  12.9 km/h 83 % 0.00 in /  0 mm 18 W/m2
17:10 55.5 °F /  13.1 °C 50.4 °F /  10.2 °C 29.95 in /  1014.1 hPa SSE 3.0 mph /  4.8 km/h 3.0 mph /  4.8 km/h 83 % 0.00 in /  0 mm 23 W/m2
17:15 55.5 °F /  13.1 °C 50.4 °F /  10.2 °C 29.95 in /  1014.1 hPa South 3.0 mph /  4.8 km/h 4.0 mph /  6.4 km/h 83 % 0.00 in /  0 mm 37 W/m2
17:20 55.5 °F /  13.1 °C 50.7 °F /  10.4 °C 29.95 in /  1014.1 hPa SSE 2.0 mph /  3.2 km/h 2.0 mph /  3.2 km/h 84 % 0.00 in /  0 mm 44 W/m2
17:25 55.4 °F /  13 °C 50.6 °F /  10.3 °C 29.95 in /  1014.1 hPa SSE 2.0 mph /  3.2 km/h 4.0 mph /  6.4 km/h 84 % 0.00 in /  0 mm 40 W/m2
17:30 55.4 °F /  13 °C 50.6 °F /  10.3 °C 29.95 in /  1014.1 hPa South 2.0 mph /  3.2 km/h 2.0 mph /  3.2 km/h 84 % 0.00 in /  0 mm 33 W/m2
17:35 55.4 °F /  13 °C 50.6 °F /  10.3 °C 29.95 in /  1014.1 hPa South 3.0 mph /  4.8 km/h 4.0 mph /  6.4 km/h 84 % 0.00 in /  0 mm 21 W/m2
17:40 55.4 °F /  13 °C 50.6 °F /  10.3 °C 29.95 in /  1014.1 hPa SSE 3.0 mph /  4.8 km/h 8.0 mph /  12.9 km/h 84 % 0.00 in /  0 mm 14 W/m2
17:45 55.4 °F /  13 °C 50.6 °F /  10.3 °C 29.95 in /  1014.1 hPa SSE 4.0 mph /  6.4 km/h 8.0 mph /  12.9 km/h 84 % 0.00 in /  0 mm 11 W/m2
17:55 55.2 °F /  12.9 °C 50.8 °F /  10.4 °C 29.95 in /  1014.1 hPa SSE 5.0 mph /  8 km/h 8.0 mph /  12.9 km/h 85 % 0.00 in /  0 mm 5 W/m2
18:00 55.1 °F /  12.8 °C 51.0 °F /  10.6 °C 29.95 in /  1014.1 hPa SSE 5.0 mph /  8 km/h 5.0 mph /  8 km/h 86 % 0.00 in /  0 mm 0 W/m2
18:10 54.9 °F /  12.7 °C 50.8 °F /  10.4 °C 29.95 in /  1014.1 hPa SSE 5.0 mph /  8 km/h 8.0 mph /  12.9 km/h 86 % 0.00 in /  0 mm 0 W/m2
18:15 54.9 °F /  12.7 °C 51.1 °F /  10.6 °C 29.95 in /  1014.1 hPa SE 5.0 mph /  8 km/h 8.0 mph /  12.9 km/h 87 % 0.00 in /  0 mm 0 W/m2
18:20 54.8 °F /  12.7 °C 51.0 °F /  10.6 °C 29.95 in /  1014.1 hPa SSE 5.0 mph /  8 km/h 8.0 mph /  12.9 km/h 87 % 0.00 in /  0 mm 0 W/m2
18:30 54.7 °F /  12.6 °C 50.9 °F /  10.5 °C 29.95 in /  1014.1 hPa SE 5.0 mph /  8 km/h 5.0 mph /  8 km/h 87 % 0.00 in /  0 mm 0 W/m2
18:35 54.6 °F /  12.6 °C 50.8 °F /  10.4 °C 29.95 in /  1014.1 hPa SSE 4.0 mph /  6.4 km/h 8.0 mph /  12.9 km/h 87 % 0.00 in /  0 mm 0 W/m2
18:40 54.6 °F /  12.6 °C 51.1 °F /  10.6 °C 29.95 in /  1014.1 hPa SSE 4.0 mph /  6.4 km/h 8.0 mph /  12.9 km/h 88 % 0.00 in /  0 mm 0 W/m2
18:45 54.5 °F /  12.5 °C 51.0 °F /  10.6 °C 29.96 in /  1014.4 hPa SSE 5.0 mph /  8 km/h 8.0 mph /  12.9 km/h 88 % 0.00 in /  0 mm 0 W/m2
18:50 54.4 °F /  12.4 °C 50.9 °F /  10.5 °C 29.95 in /  1014.1 hPa SE 5.0 mph /  8 km/h 8.0 mph /  12.9 km/h 88 % 0.00 in /  0 mm 0 W/m2
18:55 54.4 °F /  12.4 °C 50.9 °F /  10.5 °C 29.95 in /  1014.1 hPa SE 6.0 mph /  9.7 km/h 8.0 mph /  12.9 km/h 88 % 0.00 in /  0 mm 0 W/m2
19:05 54.3 °F /  12.4 °C 51.1 °F /  10.6 °C 29.95 in /  1014.1 hPa SE 5.0 mph /  8 km/h 8.0 mph /  12.9 km/h 89 % 0.00 in /  0 mm 0 W/m2
19:15 54.2 °F /  12.3 °C 51.0 °F /  10.6 °C 29.95 in /  1014.1 hPa SSE 5.0 mph /  8 km/h 8.0 mph /  12.9 km/h 89 % 0.00 in /  0 mm 0 W/m2
19:20 54.2 °F /  12.3 °C 51.0 °F /  10.6 °C 29.95 in /  1014.1 hPa SSE 5.0 mph /  8 km/h 8.0 mph /  12.9 km/h 89 % 0.00 in /  0 mm 0 W/m2
19:25 54.1 °F /  12.3 °C 50.9 °F /  10.5 °C 29.95 in /  1014.1 hPa SSE 4.0 mph /  6.4 km/h 8.0 mph /  12.9 km/h 89 % 0.00 in /  0 mm 0 W/m2
19:30 54.1 °F /  12.3 °C 50.9 °F /  10.5 °C 29.95 in /  1014.1 hPa SE 4.0 mph /  6.4 km/h 8.0 mph /  12.9 km/h 89 % 0.00 in /  0 mm 0 W/m2
19:35 54.0 °F /  12.2 °C 50.8 °F /  10.4 °C 29.95 in /  1014.1 hPa SE 4.0 mph /  6.4 km/h 8.0 mph /  12.9 km/h 89 % 0.00 in /  0 mm 0 W/m2
19:40 54.0 °F /  12.2 °C 50.8 °F /  10.4 °C 29.95 in /  1014.1 hPa SE 5.0 mph /  8 km/h 5.0 mph /  8 km/h 89 % 0.00 in /  0 mm 0 W/m2
19:45 54.0 °F /  12.2 °C 50.8 °F /  10.4 °C 29.95 in /  1014.1 hPa SSE 5.0 mph /  8 km/h 8.0 mph /  12.9 km/h 89 % 0.00 in /  0 mm 0 W/m2
19:50 54.0 °F /  12.2 °C 50.8 °F /  10.4 °C 29.95 in /  1014.1 hPa ESE 4.0 mph /  6.4 km/h 4.0 mph /  6.4 km/h 89 % 0.00 in /  0 mm 0 W/m2
19:55 53.9 °F /  12.2 °C 51.0 °F /  10.6 °C 29.95 in /  1014.1 hPa SE 3.0 mph /  4.8 km/h 8.0 mph /  12.9 km/h 90 % 0.00 in /  0 mm 0 W/m2
20:00 53.9 °F /  12.2 °C 51.0 °F /  10.6 °C 29.95 in /  1014.1 hPa SE 2.0 mph /  3.2 km/h 2.0 mph /  3.2 km/h 90 % 0.00 in /  0 mm 0 W/m2
20:10 53.8 °F /  12.1 °C 50.9 °F /  10.5 °C 29.94 in /  1013.8 hPa ESE 3.0 mph /  4.8 km/h 8.0 mph /  12.9 km/h 90 % 0.00 in /  0 mm 0 W/m2
20:15 53.8 °F /  12.1 °C 50.9 °F /  10.5 °C 29.94 in /  1013.8 hPa SE 3.0 mph /  4.8 km/h 8.0 mph /  12.9 km/h 90 % 0.00 in /  0 mm 0 W/m2
20:20 53.8 °F /  12.1 °C 50.9 °F /  10.5 °C 29.94 in /  1013.8 hPa SSE 5.0 mph /  8 km/h 8.0 mph /  12.9 km/h 90 % 0.00 in /  0 mm 0 W/m2
20:25 53.7 °F /  12.1 °C 50.8 °F /  10.4 °C 29.94 in /  1013.8 hPa SE 5.0 mph /  8 km/h 8.0 mph /  12.9 km/h 90 % 0.00 in /  0 mm 0 W/m2
20:30 53.7 °F /  12.1 °C 51.1 °F /  10.6 °C 29.94 in /  1013.8 hPa SSE 5.0 mph /  8 km/h 5.0 mph /  8 km/h 91 % 0.00 in /  0 mm 0 W/m2
20:35 53.6 °F /  12 °C 51.0 °F /  10.6 °C 29.94 in /  1013.8 hPa SSE 5.0 mph /  8 km/h 8.0 mph /  12.9 km/h 91 % 0.00 in /  0 mm 0 W/m2
20:45 53.6 °F /  12 °C 51.0 °F /  10.6 °C 29.94 in /  1013.8 hPa SE 6.0 mph /  9.7 km/h 7.0 mph /  11.3 km/h 91 % 0.00 in /  0 mm 0 W/m2
20:50 53.5 °F /  11.9 °C 50.9 °F /  10.5 °C 29.93 in /  1013.4 hPa SE 6.0 mph /  9.7 km/h 6.0 mph /  9.7 km/h 91 % 0.00 in /  0 mm 0 W/m2
20:55 53.5 °F /  11.9 °C 50.9 °F /  10.5 °C 29.93 in /  1013.4 hPa SE 6.0 mph /  9.7 km/h 10.0 mph /  16.1 km/h 91 % 0.00 in /  0 mm 0 W/m2
21:00 53.5 °F /  11.9 °C 51.2 °F /  10.7 °C 29.93 in /  1013.4 hPa SSE 7.0 mph /  11.3 km/h 7.0 mph /  11.3 km/h 92 % 0.00 in /  0 mm 0 W/m2
21:05 53.4 °F /  11.9 °C 51.1 °F /  10.6 °C 29.93 in /  1013.4 hPa SE 7.0 mph /  11.3 km/h 8.0 mph /  12.9 km/h 92 % 0.00 in /  0 mm 0 W/m2
21:15 53.4 °F /  11.9 °C 51.1 °F /  10.6 °C 29.93 in /  1013.4 hPa SSE 7.0 mph /  11.3 km/h 9.0 mph /  14.5 km/h 92 % 0.00 in /  0 mm 0 W/m2
21:20 53.4 °F /  11.9 °C 51.1 °F /  10.6 °C 29.93 in /  1013.4 hPa SE 7.0 mph /  11.3 km/h 8.0 mph /  12.9 km/h 92 % 0.00 in /  0 mm 0 W/m2
21:25 53.4 °F /  11.9 °C 51.1 °F /  10.6 °C 29.93 in /  1013.4 hPa SE 6.0 mph /  9.7 km/h 8.0 mph /  12.9 km/h 92 % 0.00 in /  0 mm 0 W/m2
21:30 53.3 °F /  11.8 °C 51.0 °F /  10.6 °C 29.93 in /  1013.4 hPa SE 6.0 mph /  9.7 km/h 8.0 mph /  12.9 km/h 92 % 0.00 in /  0 mm 0 W/m2
21:35 53.3 °F /  11.8 °C 51.0 °F /  10.6 °C 29.93 in /  1013.4 hPa SE 6.0 mph /  9.7 km/h 8.0 mph /  12.9 km/h 92 % 0.00 in /  0 mm 0 W/m2
21:40 53.2 °F /  11.8 °C 51.2 °F /  10.7 °C 29.92 in /  1013.1 hPa SE 6.0 mph /  9.7 km/h 8.0 mph /  12.9 km/h 93 % 0.00 in /  0 mm 0 W/m2
21:45 53.2 °F /  11.8 °C 51.2 °F /  10.7 °C 29.92 in /  1013.1 hPa SE 7.0 mph /  11.3 km/h 8.0 mph /  12.9 km/h 93 % 0.00 in /  0 mm 0 W/m2
21:55 53.1 °F /  11.7 °C 51.1 °F /  10.6 °C 29.92 in /  1013.1 hPa SE 6.0 mph /  9.7 km/h 9.0 mph /  14.5 km/h 93 % 0.00 in /  0 mm 0 W/m2
22:00 53.1 °F /  11.7 °C 51.1 °F /  10.6 °C 29.92 in /  1013.1 hPa SSE 6.0 mph /  9.7 km/h 6.0 mph /  9.7 km/h 93 % 0.00 in /  0 mm 0 W/m2
22:05 53.1 °F /  11.7 °C 51.1 °F /  10.6 °C 29.92 in /  1013.1 hPa SE 6.0 mph /  9.7 km/h 7.0 mph /  11.3 km/h 93 % 0.00 in /  0 mm 0 W/m2
22:10 53.1 °F /  11.7 °C 51.1 °F /  10.6 °C 29.92 in /  1013.1 hPa SE 5.0 mph /  8 km/h 5.0 mph /  8 km/h 93 % 0.00 in /  0 mm 0 W/m2
22:15 53.1 °F /  11.7 °C 51.1 °F /  10.6 °C 29.92 in /  1013.1 hPa SE 5.0 mph /  8 km/h 6.0 mph /  9.7 km/h 93 % 0.00 in /  0 mm 0 W/m2
22:25 53.1 °F /  11.7 °C 51.1 °F /  10.6 °C 29.92 in /  1013.1 hPa SE 5.0 mph /  8 km/h 8.0 mph /  12.9 km/h 93 % 0.00 in /  0 mm 0 W/m2
22:30 53.1 °F /  11.7 °C 51.1 °F /  10.6 °C 29.92 in /  1013.1 hPa ESE 5.0 mph /  8 km/h 8.0 mph /  12.9 km/h 93 % 0.00 in /  0 mm 0 W/m2
22:35 53.1 °F /  11.7 °C 51.1 °F /  10.6 °C 29.92 in /  1013.1 hPa South 5.0 mph /  8 km/h 8.0 mph /  12.9 km/h 93 % 0.00 in /  0 mm 0 W/m2
22:40 53.2 °F /  11.8 °C 51.2 °F /  10.7 °C 29.91 in /  1012.8 hPa SSE 6.0 mph /  9.7 km/h 6.0 mph /  9.7 km/h 93 % 0.00 in /  0 mm 0 W/m2
22:45 53.3 °F /  11.8 °C 51.3 °F /  10.7 °C 29.91 in /  1012.8 hPa South 6.0 mph /  9.7 km/h 8.0 mph /  12.9 km/h 93 % 0.00 in /  0 mm 0 W/m2
22:50 53.3 °F /  11.8 °C 51.3 °F /  10.7 °C 29.91 in /  1012.8 hPa SSE 5.0 mph /  8 km/h 5.0 mph /  8 km/h 93 % 0.00 in /  0 mm 0 W/m2
23:00 53.3 °F /  11.8 °C 51.3 °F /  10.7 °C 29.91 in /  1012.8 hPa SSE 5.0 mph /  8 km/h 8.0 mph /  12.9 km/h 93 % 0.00 in /  0 mm 0 W/m2
23:05 53.3 °F /  11.8 °C 51.3 °F /  10.7 °C 29.91 in /  1012.8 hPa SSE 5.0 mph /  8 km/h 9.0 mph /  14.5 km/h 93 % 0.00 in /  0 mm 0 W/m2
23:10 53.3 °F /  11.8 °C 51.3 °F /  10.7 °C 29.91 in /  1012.8 hPa SSE 6.0 mph /  9.7 km/h 8.0 mph /  12.9 km/h 93 % 0.00 in /  0 mm 0 W/m2
23:15 53.3 °F /  11.8 °C 51.3 °F /  10.7 °C 29.90 in /  1012.4 hPa SE 6.0 mph /  9.7 km/h 8.0 mph /  12.9 km/h 93 % 0.00 in /  0 mm 0 W/m2
23:20 53.3 °F /  11.8 °C 51.3 °F /  10.7 °C 29.90 in /  1012.4 hPa SE 7.0 mph /  11.3 km/h 12.0 mph /  19.3 km/h 93 % 0.00 in /  0 mm 0 W/m2
23:25 53.2 °F /  11.8 °C 51.2 °F /  10.7 °C 29.90 in /  1012.4 hPa SSW 7.0 mph /  11.3 km/h 12.0 mph /  19.3 km/h 93 % 0.00 in /  0 mm 0 W/m2
23:30 53.3 °F /  11.8 °C 51.3 °F /  10.7 °C 29.89 in /  1012.1 hPa South 6.0 mph /  9.7 km/h 6.0 mph /  9.7 km/h 93 % 0.00 in /  0 mm 0 W/m2
23:35 53.2 °F /  11.8 °C 51.2 °F /  10.7 °C 29.89 in /  1012.1 hPa SE 5.0 mph /  8 km/h 8.0 mph /  12.9 km/h 93 % 0.00 in /  0 mm 0 W/m2
23:40 53.2 °F /  11.8 °C 51.2 °F /  10.7 °C 29.89 in /  1012.1 hPa SSE 3.0 mph /  4.8 km/h 3.0 mph /  4.8 km/h 93 % 0.00 in /  0 mm 0 W/m2
23:45 53.1 °F /  11.7 °C 51.1 °F /  10.6 °C 29.89 in /  1012.1 hPa SSE 2.0 mph /  3.2 km/h 8.0 mph /  12.9 km/h 93 % 0.00 in /  0 mm 0 W/m2
23:50 53.1 °F /  11.7 °C 51.1 °F /  10.6 °C 29.89 in /  1012.1 hPa South 2.0 mph /  3.2 km/h 8.0 mph /  12.9 km/h 93 % 0.00 in /  0 mm 0 W/m2
23:55 53.1 °F /  11.7 °C 51.1 °F /  10.6 °C 29.89 in /  1012.1 hPa South 1.0 mph /  1.6 km/h 8.0 mph /  12.9 km/h 93 % 0.00 in /  0 mm 0 W/m2
Delerius-Weather
Compliments of Weather Underground - 2 mb

Data updates at regular intervals.